Portada
METAR-TAF:

METAR-TAF

Aeroports :

Granada, Espanya

latitud: 37-11N, longitud: 003-47W, altitud: 567 m

Observació

L'informe es va fer fa 34 minuts, a les 10:30 UTC
Vent 1 kt amb direcció variable
Temperatura 13°C
Humitat 62%
Pressió 1028 hPa
Visibilitat 10 km o més
sense núvols per sota de 1500 mi sense presència de cumulonimbus.

METAR: LEGR 211030Z VRB01KT CAVOK 13/06 Q1028

Hora: 12:04 (11:04 UTC)

Pronòstic

L'informe es va fer fa 3 hores i 4 minuts, a les 08:00 UTC
Pronòstic vàlid del 21 a les 09 UTC al 22 a les 09 UTC
Vent 6 kt del Sud-Est
Visibilitat 10 km o més
sense núvols per sota de 1500 mi sense presència de cumulonimbus.

TAF: LEGR 210800Z 2109/2209 14006KT CAVOK TX21/2115Z TN02/2207Z

Observacions i pronòstics meteorològics de més de 4000 aeroports (METAR i TAF).

Les estacions disponibles són els punts grocs i vermells al mapa.

Posi el ratolí al punt desitjat per veure el nom de l'estació.

Feu clic per veure les observacions i els pronòstics meteorològics.

Per canviar el mapa: feu clic els botons verds amb una creu de color negre per apropar; al botó verd amb un guió per allunyar la imatge; o en les fletxes verdes per a mapes adjacents.


METAR-TAF: